sensor_id;sensor_type;location;lat;lon;timestamp;P1;durP1;ratioP1;P2;durP2;ratioP2
69703;SDS011;56967;43.538;-5.646;2022-09-03T00:00:34;8.52;;;2.50;;
69703;SDS011;56967;43.538;-5.646;2022-09-03T00:08:12;7.47;;;1.95;;
69703;SDS011;56967;43.538;-5.646;2022-09-03T00:13:08;5.78;;;2.15;;
69703;SDS011;56967;43.538;-5.646;2022-09-03T00:15:36;8.60;;;2.15;;
69703;SDS011;56967;43.538;-5.646;2022-09-03T00:20:33;7.05;;;1.80;;
69703;SDS011;56967;43.538;-5.646;2022-09-03T00:23:02;7.57;;;2.17;;
69703;SDS011;56967;43.538;-5.646;2022-09-03T00:25:46;7.60;;;1.90;;
69703;SDS011;56967;43.538;-5.646;2022-09-03T00:28:23;7.47;;;1.90;;
69703;SDS011;56967;43.538;-5.646;2022-09-03T00:30:50;7.90;;;1.90;;
69703;SDS011;56967;43.538;-5.646;2022-09-03T00:33:20;3.80;;;1.70;;
69703;SDS011;56967;43.538;-5.646;2022-09-03T00:36:04;5.88;;;1.90;;
69703;SDS011;56967;43.538;-5.646;2022-09-03T00:38:31;5.40;;;2.08;;
69703;SDS011;56967;43.538;-5.646;2022-09-03T00:46:21;7.00;;;1.65;;
69703;SDS011;56967;43.538;-5.646;2022-09-03T00:51:21;5.57;;;1.75;;
69703;SDS011;56967;43.538;-5.646;2022-09-03T00:54:00;10.55;;;1.92;;
69703;SDS011;56967;43.538;-5.646;2022-09-03T00:56:33;6.68;;;1.90;;
69703;SDS011;56967;43.538;-5.646;2022-09-03T01:04:51;6.70;;;1.90;;
69703;SDS011;56967;43.538;-5.646;2022-09-03T01:13:01;4.03;;;1.58;;
69703;SDS011;56967;43.538;-5.646;2022-09-03T01:17:40;6.00;;;1.58;;
69703;SDS011;56967;43.538;-5.646;2022-09-03T01:23:12;5.57;;;1.73;;
69703;SDS011;56967;43.538;-5.646;2022-09-03T01:31:02;6.82;;;1.80;;
69703;SDS011;56967;43.538;-5.646;2022-09-03T01:33:39;6.72;;;1.85;;
69703;SDS011;56967;43.538;-5.646;2022-09-03T01:38:49;4.35;;;1.60;;
69703;SDS011;56967;43.538;-5.646;2022-09-03T02:00:17;8.35;;;2.03;;
69703;SDS011;56967;43.538;-5.646;2022-09-03T02:02:44;5.53;;;1.70;;
69703;SDS011;56967;43.538;-5.646;2022-09-03T02:07:39;4.32;;;1.50;;
69703;SDS011;56967;43.538;-5.646;2022-09-03T02:10:07;6.60;;;1.70;;
69703;SDS011;56967;43.538;-5.646;2022-09-03T02:12:33;4.22;;;1.73;;
69703;SDS011;56967;43.538;-5.646;2022-09-03T02:15:00;3.80;;;1.50;;
69703;SDS011;56967;43.538;-5.646;2022-09-03T02:17:28;5.68;;;1.42;;
69703;SDS011;56967;43.538;-5.646;2022-09-03T02:19:53;6.25;;;1.75;;
69703;SDS011;56967;43.538;-5.646;2022-09-03T02:22:19;5.85;;;1.70;;
69703;SDS011;56967;43.538;-5.646;2022-09-03T02:24:44;8.55;;;1.85;;
69703;SDS011;56967;43.538;-5.646;2022-09-03T02:27:09;6.35;;;2.00;;
69703;SDS011;56967;43.538;-5.646;2022-09-03T02:29:35;4.95;;;1.60;;
69703;SDS011;56967;43.538;-5.646;2022-09-03T02:32:00;3.40;;;1.73;;
69703;SDS011;56967;43.538;-5.646;2022-09-03T02:34:25;4.63;;;1.80;;
69703;SDS011;56967;43.538;-5.646;2022-09-03T02:36:51;6.05;;;1.60;;
69703;SDS011;56967;43.538;-5.646;2022-09-03T02:39:16;3.67;;;1.63;;
69703;SDS011;56967;43.538;-5.646;2022-09-03T02:41:42;5.07;;;1.92;;
69703;SDS011;56967;43.538;-5.646;2022-09-03T02:44:11;6.75;;;1.73;;
69703;SDS011;56967;43.538;-5.646;2022-09-03T02:46:38;6.15;;;1.83;;
69703;SDS011;56967;43.538;-5.646;2022-09-03T02:49:04;6.05;;;1.70;;
69703;SDS011;56967;43.538;-5.646;2022-09-03T02:51:40;4.00;;;1.60;;
69703;SDS011;56967;43.538;-5.646;2022-09-03T02:54:06;5.60;;;1.70;;
69703;SDS011;56967;43.538;-5.646;2022-09-03T02:56:31;11.27;;;2.08;;
69703;SDS011;56967;43.538;-5.646;2022-09-03T02:58:57;8.25;;;1.80;;
69703;SDS011;56967;43.538;-5.646;2022-09-03T03:01:22;7.75;;;2.15;;
69703;SDS011;56967;43.538;-5.646;2022-09-03T03:03:47;5.53;;;1.88;;
69703;SDS011;56967;43.538;-5.646;2022-09-03T03:06:13;7.47;;;1.70;;
69703;SDS011;56967;43.538;-5.646;2022-09-03T03:08:38;8.73;;;1.90;;
69703;SDS011;56967;43.538;-5.646;2022-09-03T03:11:04;4.63;;;1.58;;
69703;SDS011;56967;43.538;-5.646;2022-09-03T03:13:29;6.25;;;1.83;;
69703;SDS011;56967;43.538;-5.646;2022-09-03T03:15:59;5.40;;;1.88;;
69703;SDS011;56967;43.538;-5.646;2022-09-03T03:18:24;7.20;;;1.88;;
69703;SDS011;56967;43.538;-5.646;2022-09-03T03:20:49;5.07;;;1.92;;
69703;SDS011;56967;43.538;-5.646;2022-09-03T03:23:15;7.88;;;1.80;;
69703;SDS011;56967;43.538;-5.646;2022-09-03T03:25:40;10.98;;;2.58;;
69703;SDS011;56967;43.538;-5.646;2022-09-03T03:28:06;3.25;;;1.50;;
69703;SDS011;56967;43.538;-5.646;2022-09-03T03:30:32;6.03;;;1.77;;
69703;SDS011;56967;43.538;-5.646;2022-09-03T03:32:57;5.07;;;1.90;;
69703;SDS011;56967;43.538;-5.646;2022-09-03T03:35:23;8.05;;;1.98;;
69703;SDS011;56967;43.538;-5.646;2022-09-03T03:37:48;5.20;;;1.83;;
69703;SDS011;56967;43.538;-5.646;2022-09-03T03:40:14;5.53;;;1.90;;
69703;SDS011;56967;43.538;-5.646;2022-09-03T03:42:39;5.82;;;1.85;;
69703;SDS011;56967;43.538;-5.646;2022-09-03T03:45:06;5.60;;;1.73;;
69703;SDS011;56967;43.538;-5.646;2022-09-03T03:47:32;6.30;;;1.70;;
69703;SDS011;56967;43.538;-5.646;2022-09-03T03:49:57;6.78;;;1.83;;
69703;SDS011;56967;43.538;-5.646;2022-09-03T03:52:23;5.95;;;1.77;;
69703;SDS011;56967;43.538;-5.646;2022-09-03T03:54:48;6.53;;;2.00;;
69703;SDS011;56967;43.538;-5.646;2022-09-03T03:57:14;6.93;;;2.05;;
69703;SDS011;56967;43.538;-5.646;2022-09-03T03:59:40;4.45;;;1.67;;
69703;SDS011;56967;43.538;-5.646;2022-09-03T04:02:05;7.43;;;1.75;;
69703;SDS011;56967;43.538;-5.646;2022-09-03T04:04:30;7.82;;;1.95;;
69703;SDS011;56967;43.538;-5.646;2022-09-03T04:06:56;6.15;;;1.90;;
69703;SDS011;56967;43.538;-5.646;2022-09-03T04:09:21;9.30;;;2.65;;
69703;SDS011;56967;43.538;-5.646;2022-09-03T04:11:46;5.72;;;2.00;;
69703;SDS011;56967;43.538;-5.646;2022-09-03T04:14:12;5.47;;;2.35;;
69703;SDS011;56967;43.538;-5.646;2022-09-03T04:16:37;6.53;;;1.80;;
69703;SDS011;56967;43.538;-5.646;2022-09-03T04:19:03;4.22;;;1.60;;
69703;SDS011;56967;43.538;-5.646;2022-09-03T04:21:29;4.43;;;1.60;;
69703;SDS011;56967;43.538;-5.646;2022-09-03T04:23:54;10.90;;;1.88;;
69703;SDS011;56967;43.538;-5.646;2022-09-03T04:26:25;7.70;;;2.00;;
69703;SDS011;56967;43.538;-5.646;2022-09-03T04:28:52;4.57;;;1.70;;
69703;SDS011;56967;43.538;-5.646;2022-09-03T04:31:18;10.80;;;2.63;;
69703;SDS011;56967;43.538;-5.646;2022-09-03T04:33:44;4.65;;;1.80;;
69703;SDS011;56967;43.538;-5.646;2022-09-03T04:36:10;5.45;;;1.73;;
69703;SDS011;56967;43.538;-5.646;2022-09-03T04:38:37;3.83;;;1.50;;
69703;SDS011;56967;43.538;-5.646;2022-09-03T04:41:03;7.65;;;1.67;;
69703;SDS011;56967;43.538;-5.646;2022-09-03T04:43:29;5.90;;;1.88;;
69703;SDS011;56967;43.538;-5.646;2022-09-03T04:45:55;6.15;;;1.67;;
69703;SDS011;56967;43.538;-5.646;2022-09-03T04:48:20;4.78;;;1.88;;
69703;SDS011;56967;43.538;-5.646;2022-09-03T04:50:45;5.00;;;2.07;;
69703;SDS011;56967;43.538;-5.646;2022-09-03T04:53:11;5.45;;;1.95;;
69703;SDS011;56967;43.538;-5.646;2022-09-03T04:55:36;8.45;;;2.10;;
69703;SDS011;56967;43.538;-5.646;2022-09-03T04:58:02;6.82;;;1.80;;
69703;SDS011;56967;43.538;-5.646;2022-09-03T05:00:27;5.03;;;1.83;;
69703;SDS011;56967;43.538;-5.646;2022-09-03T05:02:53;8.73;;;1.88;;
69703;SDS011;56967;43.538;-5.646;2022-09-03T05:05:18;6.00;;;1.75;;
69703;SDS011;56967;43.538;-5.646;2022-09-03T05:07:44;6.38;;;1.73;;
69703;SDS011;56967;43.538;-5.646;2022-09-03T05:10:10;4.32;;;1.90;;
69703;SDS011;56967;43.538;-5.646;2022-09-03T05:12:56;8.20;;;2.40;;
69703;SDS011;56967;43.538;-5.646;2022-09-03T05:15:21;7.28;;;2.30;;
69703;SDS011;56967;43.538;-5.646;2022-09-03T05:17:47;6.40;;;2.60;;
69703;SDS011;56967;43.538;-5.646;2022-09-03T05:20:12;6.32;;;2.47;;
69703;SDS011;56967;43.538;-5.646;2022-09-03T05:22:38;9.57;;;2.13;;
69703;SDS011;56967;43.538;-5.646;2022-09-03T05:25:04;5.50;;;1.85;;
69703;SDS011;56967;43.538;-5.646;2022-09-03T05:27:30;4.82;;;2.00;;
69703;SDS011;56967;43.538;-5.646;2022-09-03T05:29:55;5.13;;;2.00;;
69703;SDS011;56967;43.538;-5.646;2022-09-03T05:32:20;6.10;;;2.00;;
69703;SDS011;56967;43.538;-5.646;2022-09-03T05:34:46;4.97;;;1.98;;
69703;SDS011;56967;43.538;-5.646;2022-09-03T05:37:11;5.20;;;1.80;;
69703;SDS011;56967;43.538;-5.646;2022-09-03T05:39:36;5.63;;;1.90;;
69703;SDS011;56967;43.538;-5.646;2022-09-03T05:42:02;4.63;;;2.00;;
69703;SDS011;56967;43.538;-5.646;2022-09-03T05:44:27;4.55;;;2.15;;
69703;SDS011;56967;43.538;-5.646;2022-09-03T05:46:53;4.07;;;1.73;;
69703;SDS011;56967;43.538;-5.646;2022-09-03T05:49:18;4.57;;;2.00;;
69703;SDS011;56967;43.538;-5.646;2022-09-03T05:51:44;7.60;;;2.35;;
69703;SDS011;56967;43.538;-5.646;2022-09-03T05:54:10;6.10;;;2.20;;
69703;SDS011;56967;43.538;-5.646;2022-09-03T05:56:36;6.07;;;2.00;;
69703;SDS011;56967;43.538;-5.646;2022-09-03T05:59:04;8.07;;;2.47;;
69703;SDS011;56967;43.538;-5.646;2022-09-03T06:01:32;6.28;;;2.30;;
69703;SDS011;56967;43.538;-5.646;2022-09-03T06:03:59;7.47;;;2.20;;
69703;SDS011;56967;43.538;-5.646;2022-09-03T06:06:25;6.32;;;2.30;;
69703;SDS011;56967;43.538;-5.646;2022-09-03T06:08:55;5.82;;;2.13;;
69703;SDS011;56967;43.538;-5.646;2022-09-03T06:11:22;5.28;;;2.50;;
69703;SDS011;56967;43.538;-5.646;2022-09-03T06:13:55;8.77;;;3.10;;
69703;SDS011;56967;43.538;-5.646;2022-09-03T06:16:20;8.57;;;2.38;;
69703;SDS011;56967;43.538;-5.646;2022-09-03T06:18:47;7.05;;;2.58;;
69703;SDS011;56967;43.538;-5.646;2022-09-03T06:21:15;6.13;;;2.30;;
69703;SDS011;56967;43.538;-5.646;2022-09-03T06:23:40;5.07;;;2.30;;
69703;SDS011;56967;43.538;-5.646;2022-09-03T06:26:10;6.03;;;1.88;;
69703;SDS011;56967;43.538;-5.646;2022-09-03T06:28:37;4.57;;;2.00;;
69703;SDS011;56967;43.538;-5.646;2022-09-03T06:31:03;8.65;;;2.13;;
69703;SDS011;56967;43.538;-5.646;2022-09-03T06:33:30;5.60;;;2.03;;
69703;SDS011;56967;43.538;-5.646;2022-09-03T06:35:56;6.68;;;2.17;;
69703;SDS011;56967;43.538;-5.646;2022-09-03T06:38:22;6.20;;;2.50;;
69703;SDS011;56967;43.538;-5.646;2022-09-03T06:40:54;6.05;;;2.13;;
69703;SDS011;56967;43.538;-5.646;2022-09-03T06:43:20;7.32;;;2.63;;
69703;SDS011;56967;43.538;-5.646;2022-09-03T06:45:52;13.02;;;2.72;;
69703;SDS011;56967;43.538;-5.646;2022-09-03T06:48:17;7.22;;;2.05;;
69703;SDS011;56967;43.538;-5.646;2022-09-03T06:50:42;6.30;;;2.27;;
69703;SDS011;56967;43.538;-5.646;2022-09-03T06:53:08;13.43;;;2.75;;
69703;SDS011;56967;43.538;-5.646;2022-09-03T06:55:34;9.15;;;2.60;;
69703;SDS011;56967;43.538;-5.646;2022-09-03T06:58:03;4.35;;;2.72;;
69703;SDS011;56967;43.538;-5.646;2022-09-03T07:00:29;4.83;;;2.50;;
69703;SDS011;56967;43.538;-5.646;2022-09-03T07:02:57;7.27;;;2.47;;
69703;SDS011;56967;43.538;-5.646;2022-09-03T07:05:23;6.03;;;2.75;;
69703;SDS011;56967;43.538;-5.646;2022-09-03T07:07:52;4.47;;;2.60;;
69703;SDS011;56967;43.538;-5.646;2022-09-03T07:10:17;4.95;;;2.90;;
69703;SDS011;56967;43.538;-5.646;2022-09-03T07:12:44;5.70;;;3.00;;
69703;SDS011;56967;43.538;-5.646;2022-09-03T07:15:10;6.32;;;3.50;;
69703;SDS011;56967;43.538;-5.646;2022-09-03T07:17:36;4.55;;;3.60;;
69703;SDS011;56967;43.538;-5.646;2022-09-03T07:20:01;8.23;;;3.90;;
69703;SDS011;56967;43.538;-5.646;2022-09-03T07:22:27;5.00;;;3.80;;
69703;SDS011;56967;43.538;-5.646;2022-09-03T07:24:52;6.50;;;5.00;;
69703;SDS011;56967;43.538;-5.646;2022-09-03T07:27:17;9.23;;;4.80;;
69703;SDS011;56967;43.538;-5.646;2022-09-03T07:29:43;5.60;;;5.00;;
69703;SDS011;56967;43.538;-5.646;2022-09-03T07:32:08;6.13;;;5.50;;
69703;SDS011;56967;43.538;-5.646;2022-09-03T07:34:33;6.57;;;5.77;;
69703;SDS011;56967;43.538;-5.646;2022-09-03T07:36:59;7.20;;;6.50;;
69703;SDS011;56967;43.538;-5.646;2022-09-03T07:39:25;8.00;;;6.90;;
69703;SDS011;56967;43.538;-5.646;2022-09-03T07:41:51;8.30;;;7.60;;
69703;SDS011;56967;43.538;-5.646;2022-09-03T07:44:17;8.50;;;7.80;;
69703;SDS011;56967;43.538;-5.646;2022-09-03T07:46:43;9.98;;;8.43;;
69703;SDS011;56967;43.538;-5.646;2022-09-03T07:49:10;10.10;;;9.20;;
69703;SDS011;56967;43.538;-5.646;2022-09-03T07:51:35;11.20;;;10.13;;
69703;SDS011;56967;43.538;-5.646;2022-09-03T07:54:02;12.27;;;11.18;;
69703;SDS011;56967;43.538;-5.646;2022-09-03T07:56:28;13.00;;;11.98;;
69703;SDS011;56967;43.538;-5.646;2022-09-03T07:58:55;14.25;;;12.98;;
69703;SDS011;56967;43.538;-5.646;2022-09-03T08:01:21;15.30;;;14.20;;
69703;SDS011;56967;43.538;-5.646;2022-09-03T08:03:48;16.17;;;15.07;;
69703;SDS011;56967;43.538;-5.646;2022-09-03T08:06:14;17.30;;;16.02;;
69703;SDS011;56967;43.538;-5.646;2022-09-03T08:08:39;18.58;;;16.95;;
69703;SDS011;56967;43.538;-5.646;2022-09-03T08:11:06;19.10;;;17.80;;
69703;SDS011;56967;43.538;-5.646;2022-09-03T08:13:34;21.65;;;20.00;;
69703;SDS011;56967;43.538;-5.646;2022-09-03T08:15:59;22.92;;;21.35;;
69703;SDS011;56967;43.538;-5.646;2022-09-03T08:18:25;27.25;;;25.35;;
69703;SDS011;56967;43.538;-5.646;2022-09-03T08:20:51;25.38;;;23.58;;
69703;SDS011;56967;43.538;-5.646;2022-09-03T08:23:16;27.77;;;25.53;;
69703;SDS011;56967;43.538;-5.646;2022-09-03T08:25:41;29.03;;;26.93;;
69703;SDS011;56967;43.538;-5.646;2022-09-03T08:28:08;32.80;;;30.58;;
69703;SDS011;56967;43.538;-5.646;2022-09-03T08:30:33;37.17;;;34.57;;
69703;SDS011;56967;43.538;-5.646;2022-09-03T08:33:00;40.90;;;38.00;;
69703;SDS011;56967;43.538;-5.646;2022-09-03T08:35:25;45.63;;;42.55;;
69703;SDS011;56967;43.538;-5.646;2022-09-03T08:37:51;1999.90;;;999.90;;
69703;SDS011;56967;43.538;-5.646;2022-09-03T08:40:18;1999.90;;;999.90;;
69703;SDS011;56967;43.538;-5.646;2022-09-03T08:42:48;1999.90;;;999.90;;
69703;SDS011;56967;43.538;-5.646;2022-09-03T08:45:17;1999.90;;;999.90;;
69703;SDS011;56967;43.538;-5.646;2022-09-03T08:47:51;1999.90;;;999.90;;
69703;SDS011;56967;43.538;-5.646;2022-09-03T09:00:28;35.08;;;32.30;;
69703;SDS011;56967;43.538;-5.646;2022-09-03T09:05:43;35.30;;;32.85;;
69703;SDS011;56967;43.538;-5.646;2022-09-03T09:10:58;31.10;;;28.90;;
69703;SDS011;56967;43.538;-5.646;2022-09-03T09:13:38;30.55;;;28.35;;
69703;SDS011;56967;43.538;-5.646;2022-09-03T09:16:09;15.68;;;14.18;;
69703;SDS011;56967;43.538;-5.646;2022-09-03T09:25:58;5.30;;;2.20;;
69703;SDS011;56967;43.538;-5.646;2022-09-03T09:28:25;7.60;;;3.28;;
69703;SDS011;56967;43.538;-5.646;2022-09-03T09:30:54;7.68;;;2.30;;
69703;SDS011;56967;43.538;-5.646;2022-09-03T09:33:19;8.20;;;2.40;;
69703;SDS011;56967;43.538;-5.646;2022-09-03T09:35:45;6.00;;;2.10;;
69703;SDS011;56967;43.538;-5.646;2022-09-03T09:38:11;7.22;;;2.30;;
69703;SDS011;56967;43.538;-5.646;2022-09-03T09:40:37;5.78;;;2.05;;
69703;SDS011;56967;43.538;-5.646;2022-09-03T09:45:40;8.85;;;2.40;;
69703;SDS011;56967;43.538;-5.646;2022-09-03T09:48:49;9.32;;;2.80;;
69703;SDS011;56967;43.538;-5.646;2022-09-03T09:54:13;9.95;;;2.50;;
69703;SDS011;56967;43.538;-5.646;2022-09-03T09:56:41;7.35;;;2.35;;
69703;SDS011;56967;43.538;-5.646;2022-09-03T09:59:07;6.07;;;1.63;;
69703;SDS011;56967;43.538;-5.646;2022-09-03T10:01:35;4.20;;;1.77;;
69703;SDS011;56967;43.538;-5.646;2022-09-03T10:06:33;3.40;;;1.42;;
69703;SDS011;56967;43.538;-5.646;2022-09-03T10:09:18;6.28;;;1.75;;
69703;SDS011;56967;43.538;-5.646;2022-09-03T10:11:48;6.38;;;2.22;;
69703;SDS011;56967;43.538;-5.646;2022-09-03T10:14:28;6.03;;;1.85;;
69703;SDS011;56967;43.538;-5.646;2022-09-03T10:19:47;5.47;;;1.92;;
69703;SDS011;56967;43.538;-5.646;2022-09-03T10:22:37;8.05;;;2.50;;
69703;SDS011;56967;43.538;-5.646;2022-09-03T10:25:05;7.70;;;1.80;;
69703;SDS011;56967;43.538;-5.646;2022-09-03T10:27:31;6.88;;;2.25;;
69703;SDS011;56967;43.538;-5.646;2022-09-03T10:29:57;5.03;;;1.85;;
69703;SDS011;56967;43.538;-5.646;2022-09-03T10:35:09;6.50;;;2.22;;
69703;SDS011;56967;43.538;-5.646;2022-09-03T10:37:39;8.27;;;2.80;;
69703;SDS011;56967;43.538;-5.646;2022-09-03T10:50:22;4.77;;;1.63;;
69703;SDS011;56967;43.538;-5.646;2022-09-03T10:55:22;5.70;;;1.80;;
69703;SDS011;56967;43.538;-5.646;2022-09-03T10:58:13;4.43;;;1.42;;
69703;SDS011;56967;43.538;-5.646;2022-09-03T11:00:42;3.42;;;1.50;;
69703;SDS011;56967;43.538;-5.646;2022-09-03T11:08:17;5.32;;;1.33;;
69703;SDS011;56967;43.538;-5.646;2022-09-03T11:10:47;5.60;;;1.60;;
69703;SDS011;56967;43.538;-5.646;2022-09-03T11:13:21;4.80;;;1.52;;
69703;SDS011;56967;43.538;-5.646;2022-09-03T11:15:57;5.65;;;1.30;;
69703;SDS011;56967;43.538;-5.646;2022-09-03T11:20:55;4.45;;;1.40;;
69703;SDS011;56967;43.538;-5.646;2022-09-03T11:23:26;3.63;;;1.60;;
69703;SDS011;56967;43.538;-5.646;2022-09-03T11:25:57;4.43;;;1.30;;
69703;SDS011;56967;43.538;-5.646;2022-09-03T11:33:38;2.55;;;1.25;;
69703;SDS011;56967;43.538;-5.646;2022-09-03T11:36:05;4.47;;;1.45;;
69703;SDS011;56967;43.538;-5.646;2022-09-03T11:38:30;3.05;;;1.45;;
69703;SDS011;56967;43.538;-5.646;2022-09-03T11:41:31;7.00;;;1.90;;
69703;SDS011;56967;43.538;-5.646;2022-09-03T11:43:48;3.88;;;1.20;;
69703;SDS011;56967;43.538;-5.646;2022-09-03T11:48:49;3.05;;;1.23;;
69703;SDS011;56967;43.538;-5.646;2022-09-03T11:51:28;8.38;;;1.70;;
69703;SDS011;56967;43.538;-5.646;2022-09-03T11:56:19;6.97;;;2.17;;
69703;SDS011;56967;43.538;-5.646;2022-09-03T11:58:45;6.60;;;1.63;;
69703;SDS011;56967;43.538;-5.646;2022-09-03T12:01:12;6.88;;;1.90;;
69703;SDS011;56967;43.538;-5.646;2022-09-03T12:04:23;5.28;;;1.60;;
69703;SDS011;56967;43.538;-5.646;2022-09-03T12:19:09;3.42;;;1.20;;
69703;SDS011;56967;43.538;-5.646;2022-09-03T12:21:37;3.60;;;1.17;;
69703;SDS011;56967;43.538;-5.646;2022-09-03T12:24:05;3.67;;;1.25;;
69703;SDS011;56967;43.538;-5.646;2022-09-03T12:26:37;3.15;;;1.10;;
69703;SDS011;56967;43.538;-5.646;2022-09-03T12:29:02;3.97;;;1.20;;
69703;SDS011;56967;43.538;-5.646;2022-09-03T12:31:30;4.07;;;1.20;;
69703;SDS011;56967;43.538;-5.646;2022-09-03T12:39:07;5.10;;;1.40;;
69703;SDS011;56967;43.538;-5.646;2022-09-03T12:41:32;5.07;;;1.65;;
69703;SDS011;56967;43.538;-5.646;2022-09-03T12:43:58;4.10;;;1.42;;
69703;SDS011;56967;43.538;-5.646;2022-09-03T12:46:28;7.20;;;1.20;;
69703;SDS011;56967;43.538;-5.646;2022-09-03T12:48:55;5.60;;;1.25;;
69703;SDS011;56967;43.538;-5.646;2022-09-03T12:51:20;3.67;;;1.30;;
69703;SDS011;56967;43.538;-5.646;2022-09-03T12:53:46;3.70;;;1.27;;
69703;SDS011;56967;43.538;-5.646;2022-09-03T12:56:12;4.18;;;1.58;;
69703;SDS011;56967;43.538;-5.646;2022-09-03T12:58:47;5.85;;;1.30;;
69703;SDS011;56967;43.538;-5.646;2022-09-03T13:01:15;4.97;;;1.30;;
69703;SDS011;56967;43.538;-5.646;2022-09-03T13:06:18;5.63;;;1.30;;
69703;SDS011;56967;43.538;-5.646;2022-09-03T13:08:53;3.92;;;1.42;;
69703;SDS011;56967;43.538;-5.646;2022-09-03T13:11:20;3.25;;;1.33;;
69703;SDS011;56967;43.538;-5.646;2022-09-03T13:13:52;2.10;;;1.10;;
69703;SDS011;56967;43.538;-5.646;2022-09-03T13:28:55;4.93;;;1.30;;
69703;SDS011;56967;43.538;-5.646;2022-09-03T13:39:46;3.78;;;1.20;;
69703;SDS011;56967;43.538;-5.646;2022-09-03T13:44:48;4.68;;;1.20;;
69703;SDS011;56967;43.538;-5.646;2022-09-03T13:47:50;3.75;;;1.20;;
69703;SDS011;56967;43.538;-5.646;2022-09-03T13:50:28;2.97;;;1.20;;
69703;SDS011;56967;43.538;-5.646;2022-09-03T13:55:48;6.78;;;1.40;;
69703;SDS011;56967;43.538;-5.646;2022-09-03T14:00:53;2.25;;;1.05;;
69703;SDS011;56967;43.538;-5.646;2022-09-03T14:08:33;4.43;;;1.20;;
69703;SDS011;56967;43.538;-5.646;2022-09-03T14:11:45;4.72;;;1.23;;
69703;SDS011;56967;43.538;-5.646;2022-09-03T14:16:29;2.60;;;1.20;;
69703;SDS011;56967;43.538;-5.646;2022-09-03T14:26:47;3.67;;;0.98;;
69703;SDS011;56967;43.538;-5.646;2022-09-03T14:31:57;3.78;;;1.30;;
69703;SDS011;56967;43.538;-5.646;2022-09-03T14:40:02;2.80;;;1.23;;
69703;SDS011;56967;43.538;-5.646;2022-09-03T14:42:30;3.05;;;1.10;;
69703;SDS011;56967;43.538;-5.646;2022-09-03T14:50:40;2.17;;;0.80;;
69703;SDS011;56967;43.538;-5.646;2022-09-03T15:00:48;3.78;;;1.00;;
69703;SDS011;56967;43.538;-5.646;2022-09-03T15:11:18;3.20;;;1.13;;
69703;SDS011;56967;43.538;-5.646;2022-09-03T15:14:00;2.92;;;1.20;;
69703;SDS011;56967;43.538;-5.646;2022-09-03T15:21:30;3.13;;;1.10;;
69703;SDS011;56967;43.538;-5.646;2022-09-03T15:32:19;3.60;;;1.13;;
69703;SDS011;56967;43.538;-5.646;2022-09-03T15:39:56;3.90;;;1.35;;
69703;SDS011;56967;43.538;-5.646;2022-09-03T15:42:24;1.15;;;0.70;;
69703;SDS011;56967;43.538;-5.646;2022-09-03T15:44:52;7.53;;;1.50;;
69703;SDS011;56967;43.538;-5.646;2022-09-03T15:50:05;3.03;;;0.95;;
69703;SDS011;56967;43.538;-5.646;2022-09-03T15:55:07;5.15;;;0.90;;
69703;SDS011;56967;43.538;-5.646;2022-09-03T16:00:21;2.10;;;0.82;;
69703;SDS011;56967;43.538;-5.646;2022-09-03T16:02:52;3.35;;;1.08;;
69703;SDS011;56967;43.538;-5.646;2022-09-03T16:05:20;2.15;;;1.20;;
69703;SDS011;56967;43.538;-5.646;2022-09-03T16:10:14;1.95;;;0.98;;
69703;SDS011;56967;43.538;-5.646;2022-09-03T16:15:25;6.20;;;1.48;;
69703;SDS011;56967;43.538;-5.646;2022-09-03T16:20:22;3.28;;;1.00;;
69703;SDS011;56967;43.538;-5.646;2022-09-03T16:25:26;2.92;;;0.90;;
69703;SDS011;56967;43.538;-5.646;2022-09-03T16:30:21;4.22;;;1.02;;
69703;SDS011;56967;43.538;-5.646;2022-09-03T16:35:27;3.03;;;1.10;;
69703;SDS011;56967;43.538;-5.646;2022-09-03T16:43:17;2.25;;;1.00;;
69703;SDS011;56967;43.538;-5.646;2022-09-03T16:48:44;2.85;;;1.00;;
69703;SDS011;56967;43.538;-5.646;2022-09-03T16:56:52;6.75;;;1.13;;
69703;SDS011;56967;43.538;-5.646;2022-09-03T16:59:25;3.22;;;1.10;;
69703;SDS011;56967;43.538;-5.646;2022-09-03T17:09:37;4.43;;;1.05;;
69703;SDS011;56967;43.538;-5.646;2022-09-03T17:17:03;2.45;;;0.95;;
69703;SDS011;56967;43.538;-5.646;2022-09-03T17:24:51;2.53;;;0.98;;
69703;SDS011;56967;43.538;-5.646;2022-09-03T17:40:40;4.28;;;1.20;;
69703;SDS011;56967;43.538;-5.646;2022-09-03T17:50:34;3.42;;;1.17;;
69703;SDS011;56967;43.538;-5.646;2022-09-03T17:53:17;5.03;;;1.02;;
69703;SDS011;56967;43.538;-5.646;2022-09-03T17:56:07;2.30;;;0.77;;
69703;SDS011;56967;43.538;-5.646;2022-09-03T17:58:32;4.25;;;1.20;;
69703;SDS011;56967;43.538;-5.646;2022-09-03T18:01:17;3.38;;;1.05;;
69703;SDS011;56967;43.538;-5.646;2022-09-03T18:06:25;3.03;;;1.20;;
69703;SDS011;56967;43.538;-5.646;2022-09-03T18:11:28;3.45;;;1.13;;
69703;SDS011;56967;43.538;-5.646;2022-09-03T18:21:53;3.88;;;1.30;;
69703;SDS011;56967;43.538;-5.646;2022-09-03T18:27:36;2.42;;;1.20;;
69703;SDS011;56967;43.538;-5.646;2022-09-03T18:30:22;3.05;;;1.30;;
69703;SDS011;56967;43.538;-5.646;2022-09-03T18:33:06;7.07;;;1.40;;
69703;SDS011;56967;43.538;-5.646;2022-09-03T18:35:50;6.47;;;1.23;;
69703;SDS011;56967;43.538;-5.646;2022-09-03T18:38:35;2.80;;;1.33;;
69703;SDS011;56967;43.538;-5.646;2022-09-03T18:50:23;4.57;;;1.35;;
69703;SDS011;56967;43.538;-5.646;2022-09-03T18:59:26;4.68;;;1.40;;
69703;SDS011;56967;43.538;-5.646;2022-09-03T19:01:49;4.68;;;1.58;;
69703;SDS011;56967;43.538;-5.646;2022-09-03T19:13:26;3.00;;;1.30;;
69703;SDS011;56967;43.538;-5.646;2022-09-03T19:19:13;5.35;;;1.50;;
69703;SDS011;56967;43.538;-5.646;2022-09-03T19:22:42;4.50;;;1.40;;
69703;SDS011;56967;43.538;-5.646;2022-09-03T19:25:09;5.55;;;1.50;;
69703;SDS011;56967;43.538;-5.646;2022-09-03T19:30:42;5.10;;;1.67;;
69703;SDS011;56967;43.538;-5.646;2022-09-03T19:33:35;6.45;;;1.80;;
69703;SDS011;56967;43.538;-5.646;2022-09-03T19:36:30;3.40;;;1.70;;
69703;SDS011;56967;43.538;-5.646;2022-09-03T19:42:37;4.82;;;1.67;;
69703;SDS011;56967;43.538;-5.646;2022-09-03T19:48:24;2.47;;;1.40;;
69703;SDS011;56967;43.538;-5.646;2022-09-03T19:51:24;4.80;;;1.40;;
69703;SDS011;56967;43.538;-5.646;2022-09-03T19:54:11;5.20;;;1.58;;
69703;SDS011;56967;43.538;-5.646;2022-09-03T19:56:55;5.13;;;1.42;;
69703;SDS011;56967;43.538;-5.646;2022-09-03T19:59:40;4.65;;;1.65;;
69703;SDS011;56967;43.538;-5.646;2022-09-03T20:02:24;3.70;;;1.55;;
69703;SDS011;56967;43.538;-5.646;2022-09-03T20:05:19;3.95;;;1.40;;
69703;SDS011;56967;43.538;-5.646;2022-09-03T20:08:03;3.67;;;1.58;;
69703;SDS011;56967;43.538;-5.646;2022-09-03T20:10:47;3.40;;;1.60;;
69703;SDS011;56967;43.538;-5.646;2022-09-03T20:13:14;5.28;;;2.30;;
69703;SDS011;56967;43.538;-5.646;2022-09-03T20:25:59;8.97;;;3.00;;
69703;SDS011;56967;43.538;-5.646;2022-09-03T20:28:37;7.93;;;3.10;;
69703;SDS011;56967;43.538;-5.646;2022-09-03T20:51:30;8.80;;;1.75;;
69703;SDS011;56967;43.538;-5.646;2022-09-03T21:01:32;4.88;;;1.92;;
69703;SDS011;56967;43.538;-5.646;2022-09-03T21:06:49;4.60;;;2.33;;
69703;SDS011;56967;43.538;-5.646;2022-09-03T21:12:01;4.60;;;2.60;;
69703;SDS011;56967;43.538;-5.646;2022-09-03T21:20:02;12.95;;;3.33;;
69703;SDS011;56967;43.538;-5.646;2022-09-03T21:22:42;6.38;;;3.10;;
69703;SDS011;56967;43.538;-5.646;2022-09-03T21:25:16;4.80;;;3.03;;
69703;SDS011;56967;43.538;-5.646;2022-09-03T21:27:45;5.35;;;3.10;;
69703;SDS011;56967;43.538;-5.646;2022-09-03T21:30:15;5.82;;;3.03;;
69703;SDS011;56967;43.538;-5.646;2022-09-03T21:32:43;5.72;;;3.33;;
69703;SDS011;56967;43.538;-5.646;2022-09-03T21:35:22;5.18;;;2.58;;
69703;SDS011;56967;43.538;-5.646;2022-09-03T21:38:03;5.63;;;2.78;;
69703;SDS011;56967;43.538;-5.646;2022-09-03T21:40:29;5.85;;;2.65;;
69703;SDS011;56967;43.538;-5.646;2022-09-03T21:45:50;7.55;;;3.25;;
69703;SDS011;56967;43.538;-5.646;2022-09-03T21:50:50;8.17;;;2.77;;
69703;SDS011;56967;43.538;-5.646;2022-09-03T21:53:25;5.87;;;2.87;;